Time;durP1;ratioP1;P1;durP2;ratioP2;P2;SDS_P1;SDS_P2;PMS_P1;PMS_P2;Temp;Humidity;BMP_temperature;BMP_pressure;BME280_temperature;BME280_humidity;BME280_pressure;Samples;Min_cycle;Max_cycle;Signal;HPM_P1;HPM_P2
2023/02/09 00:00:10;;;;;;;;;77.00;58.67;;;;;1.84;56.00;103034.25;1954640;28;3636695;-74
2023/02/09 00:01:25;;;;;;;;;80.33;59.33;;;;;1.83;55.97;103032.50;1952174;28;3653391;-74
2023/02/09 00:02:37;;;;;;;;;82.67;61.00;;;;;1.82;55.93;103030.72;1954978;28;3626599;-74
2023/02/09 00:03:50;;;;;;;;;75.67;56.00;;;;;1.82;55.76;103030.72;1961325;28;3649188;-74
2023/02/09 00:05:01;;;;;;;;;80.00;60.67;;;;;1.80;55.88;103031.53;1961838;28;3630451;-74
2023/02/09 00:06:15;;;;;;;;;80.60;60.80;;;;;1.80;55.56;103028.06;1954779;28;2879850;-74
2023/02/09 00:07:26;;;;;;;;;78.67;61.67;;;;;1.78;55.97;103033.19;1978350;28;3603352;-74
2023/02/09 00:08:38;;;;;;;;;82.33;61.00;;;;;1.77;56.64;103034.00;1974726;28;3641885;-74
2023/02/09 00:09:51;;;;;;;;;82.33;61.00;;;;;1.77;55.81;103036.59;1955827;28;3646467;-74
2023/02/09 00:11:07;;;;;;;;;77.67;60.33;;;;;1.76;55.61;103040.00;1954066;28;3621076;-73
2023/02/09 00:13:49;;;;;;;;;76.00;59.33;;;;;1.76;56.80;103041.72;1960764;28;3623158;-74
2023/02/09 00:15:04;;;;;;;;;84.38;62.63;;;;;1.74;56.10;103041.66;1978197;28;3647104;-74
2023/02/09 00:16:16;;;;;;;;;79.33;60.67;;;;;1.76;55.88;103040.00;1984628;28;3630450;-74
2023/02/09 00:17:28;;;;;;;;;74.67;58.67;;;;;1.75;56.07;103030.47;1976602;28;3632529;-74
2023/02/09 00:18:40;;;;;;;;;89.67;70.33;;;;;1.75;56.28;103034.78;1966048;28;3672357;-74
2023/02/09 00:19:55;;;;;;;;;80.67;62.67;;;;;1.76;56.50;103028.75;1967889;28;3652332;-74
2023/02/09 00:21:10;;;;;;;;;83.00;63.00;;;;;1.75;56.54;103035.66;1954052;28;3632525;-74
2023/02/09 00:22:21;;;;;;;;;83.00;63.00;;;;;1.74;55.93;103033.88;1954451;28;3642953;-73
2023/02/09 00:23:36;;;;;;;;;80.33;62.67;;;;;1.73;56.44;103032.09;1968328;28;3628808;-74
2023/02/09 00:24:47;;;;;;;;;86.00;64.33;;;;;1.73;56.31;103034.69;1961488;28;3652300;-74
2023/02/09 00:26:01;;;;;;;;;79.33;62.00;;;;;1.73;56.50;103029.50;1969572;28;3603356;-74
2023/02/09 00:27:13;;;;;;;;;87.00;63.33;;;;;1.73;56.81;103037.28;1968807;28;3650245;-74
2023/02/09 00:28:25;;;;;;;;;74.00;57.00;;;;;1.73;56.22;103032.09;1965282;28;3632536;-74
2023/02/09 00:29:37;;;;;;;;;82.67;65.00;;;;;1.73;56.17;103037.28;1962325;28;3627312;-74
2023/02/09 00:30:51;;;;;;;;;84.25;63.63;;;;;1.74;56.27;103027.81;1970314;28;3641864;-74
2023/02/09 00:32:03;;;;;;;;;84.00;64.00;;;;;1.72;56.42;103027.75;1983785;28;3629401;-74
2023/02/09 00:33:15;;;;;;;;;85.33;64.67;;;;;1.71;56.22;103022.47;1958729;28;3640922;-74
2023/02/09 00:34:27;;;;;;;;;82.00;63.67;;;;;1.71;55.79;103027.66;1960659;28;3626265;-74
2023/02/09 00:35:42;;;;;;;;;85.13;63.88;;;;;1.70;56.54;103021.63;1962919;28;3638760;-74
2023/02/09 00:36:53;;;;;;;;;87.33;66.67;;;;;1.70;56.23;103019.03;1955379;28;3656551;-74
2023/02/09 00:38:05;;;;;;;;;87.33;65.00;;;;;1.69;56.26;103019.84;1981976;28;3658909;-74
2023/02/09 00:39:17;;;;;;;;;84.33;63.67;;;;;1.68;56.41;103018.94;1983600;28;3648153;-74
2023/02/09 00:40:28;;;;;;;;;86.20;65.80;;;;;1.68;56.07;103020.66;1971256;28;2883782;-74
2023/02/09 00:43:12;;;;;;;;;86.33;65.00;;;;;1.65;56.63;103026.63;1969304;28;3639813;-74
2023/02/09 00:44:23;;;;;;;;;85.00;64.40;;;;;1.64;56.62;103021.34;1970375;28;2884651;-74
2023/02/09 00:45:35;;;;;;;;;87.67;62.67;;;;;1.63;56.55;103019.59;2008290;28;3637740;-74
2023/02/09 00:46:48;;;;;;;;;84.40;63.80;;;;;1.62;56.83;103021.28;1971548;28;2889879;-74
2023/02/09 00:48:00;;;;;;;;;85.67;66.00;;;;;1.62;56.40;103018.72;1985352;28;3655385;-74
2023/02/09 00:49:11;;;;;;;;;86.33;66.00;;;;;1.62;56.80;103023.00;1959093;28;3632546;-74
2023/02/09 00:50:24;;;;;;;;;82.67;64.00;;;;;1.62;56.74;103025.59;1977281;28;3636685;-74
2023/02/09 00:51:36;;;;;;;;;80.67;62.00;;;;;1.61;56.57;103021.22;1968776;28;3627665;-74
2023/02/09 00:52:48;;;;;;;;;78.00;60.67;;;;;1.61;56.64;103023.81;1980665;28;3624688;-74
2023/02/09 00:54:00;;;;;;;;;86.00;63.67;;;;;1.59;56.54;103013.38;1980765;28;3635649;-74
2023/02/09 00:55:12;;;;;;;;;83.00;63.33;;;;;1.60;56.72;103024.66;1983173;28;3629448;-74
2023/02/09 00:56:25;;;;;;;;;77.57;61.00;;;;;1.60;56.68;103016.88;1984687;28;3606501;-74
2023/02/09 00:57:36;;;;;;;;;80.60;63.00;;;;;1.60;56.83;103014.28;1972182;28;2880520;-74
2023/02/09 00:58:48;;;;;;;;;83.33;62.67;;;;;1.59;56.83;103025.44;2008254;28;3644973;-74
2023/02/09 00:59:59;;;;;;;;;84.20;64.60;;;;;1.60;56.31;103027.22;1964692;28;2882515;-74
2023/02/09 01:01:12;;;;;;;;;84.00;65.40;;;;;1.60;56.83;103027.22;1990263;28;2875261;-74
2023/02/09 01:02:23;;;;;;;;;81.67;64.67;;;;;1.57;56.85;103026.28;1990457;28;3625189;-74
2023/02/09 01:03:35;;;;;;;;;82.67;63.00;;;;;1.57;57.31;103022.81;1976669;28;3629398;-74
2023/02/09 01:04:49;;;;;;;;;83.63;64.00;;;;;1.56;56.97;103021.91;1976254;28;3635658;-74
2023/02/09 01:06:01;;;;;;;;;83.33;65.00;;;;;1.55;57.15;103025.34;1990994;28;3621064;-74
2023/02/09 01:07:13;;;;;;;;;85.00;63.33;;;;;1.56;57.46;103026.22;1982297;28;3643336;-74
2023/02/09 01:08:26;;;;;;;;;87.25;66.25;;;;;1.53;57.19;103024.38;1977800;28;3659585;-74
2023/02/09 01:09:40;;;;;;;;;81.13;61.38;;;;;1.53;57.03;103024.38;1979461;28;3643948;-74
2023/02/09 01:10:52;;;;;;;;;83.33;62.67;;;;;1.52;56.60;103027.81;1991503;28;3651275;-74
2023/02/09 01:12:04;;;;;;;;;80.33;60.67;;;;;1.52;57.41;103026.91;1982430;28;3620046;-74
2023/02/09 01:13:16;;;;;;;;;90.00;64.67;;;;;1.51;57.25;103026.03;1977230;28;3652336;-74
2023/02/09 01:14:28;;;;;;;;;85.33;63.67;;;;;1.50;57.08;103024.25;1986041;28;3630434;-74
2023/02/09 01:15:40;;;;;;;;;88.00;66.00;;;;;1.50;56.99;103029.44;1983866;28;3645514;-74
2023/02/09 01:16:52;;;;;;;;;85.00;67.00;;;;;1.49;56.73;103022.47;1983464;28;3629409;-74
2023/02/09 01:18:04;;;;;;;;;87.00;65.00;;;;;1.50;56.99;103023.38;1981688;28;3650261;-74
2023/02/09 01:19:17;;;;;;;;;90.50;67.50;;;;;1.49;56.41;103027.66;1967821;28;3678458;-74
2023/02/09 01:20:29;;;;;;;;;91.67;69.67;;;;;1.48;57.17;103019.84;1991816;28;3670078;-74
2023/02/09 01:21:41;;;;;;;;;92.00;65.67;;;;;1.47;57.38;103024.13;1983037;28;3657513;-74
2023/02/09 01:22:54;;;;;;;;;93.50;77.25;;;;;1.47;57.58;103018.94;1975511;28;3668021;-74
2023/02/09 01:24:10;;;;;;;;;92.75;73.00;;;;;1.46;57.34;103018.06;1991674;28;4429395;-74
2023/02/09 01:25:22;;;;;;;;;87.33;67.00;;;;;1.46;57.05;103022.34;1989400;28;3645026;-74
2023/02/09 01:26:34;;;;;;;;;83.33;64.00;;;;;1.46;57.46;103024.94;1979684;28;3627320;-74
2023/02/09 01:27:47;;;;;;;;;90.00;70.25;;;;;1.45;56.87;103026.66;1974785;28;3655506;-74
2023/02/09 01:28:59;;;;;;;;;94.25;75.25;;;;;1.44;57.32;103024.88;1983568;28;4425198;-74
2023/02/09 01:30:11;;;;;;;;;89.00;65.80;;;;;1.42;57.62;103029.13;1986324;28;2893035;-74
2023/02/09 01:31:25;;;;;;;;;91.25;72.75;;;;;1.41;56.46;103021.25;1994920;28;3672154;-74
2023/02/09 01:32:37;;;;;;;;;89.00;67.50;;;;;1.42;57.31;103028.22;1984252;28;3664893;-74
2023/02/09 01:33:50;;;;;;;;;88.00;71.00;;;;;1.40;56.99;103033.34;1982237;28;3655437;-74
2023/02/09 01:35:02;;;;;;;;;87.00;65.67;;;;;1.40;57.08;103030.75;1968008;28;3642277;-74
2023/02/09 01:36:14;;;;;;;;;88.67;66.00;;;;;1.38;56.92;103037.59;1978960;28;3653422;-75
2023/02/09 01:37:25;;;;;;;;;85.40;66.80;;;;;1.40;56.78;103032.47;1928685;28;3646449;-74
2023/02/09 01:38:38;;;;;;;;;87.75;65.50;;;;;1.39;57.02;103039.34;1980832;28;3664811;-74
2023/02/09 01:39:50;;;;;;;;;89.67;65.00;;;;;1.39;57.49;103039.34;1990361;28;3655430;-74
2023/02/09 01:41:02;;;;;;;;;89.33;68.33;;;;;1.39;57.09;103044.53;1981878;28;3659619;-74
2023/02/09 01:42:16;;;;;;;;;85.00;64.67;;;;;1.38;57.91;103036.69;1982370;28;3652317;-74
2023/02/09 01:43:28;;;;;;;;;83.33;65.33;;;;;1.37;56.87;103032.31;1960996;28;3631460;-74
2023/02/09 01:44:39;;;;;;;;;79.67;64.67;;;;;1.37;56.58;103037.50;1983319;28;3605451;-74
2023/02/09 01:45:55;;;;;;;;;81.00;62.20;;;;;1.36;57.42;103041.78;1995827;28;2878366;-74
2023/02/09 01:47:18;;;;;;;;;83.67;63.00;;;;;1.33;57.23;103036.50;1991253;28;3643971;-74
2023/02/09 01:48:30;;;;;;;;;83.67;65.00;;;;;1.33;57.80;103037.38;1964956;28;3633610;-74
2023/02/09 01:49:48;;;;;;;;;75.67;59.67;;;;;1.32;56.98;103040.78;1972170;28;3623168;-74
2023/02/09 01:51:00;;;;;;;;;89.67;66.00;;;;;1.31;57.12;103038.16;1964956;28;3662721;-74
2023/02/09 01:52:24;;;;;;;;;83.67;63.67;;;;;1.30;57.49;103032.06;1981652;28;3627316;-74
2023/02/09 01:53:36;;;;;;;;;85.67;65.00;;;;;1.31;57.07;103039.00;1971515;28;3635687;-74
2023/02/09 01:54:53;;;;;;;;;84.00;65.00;;;;;1.30;57.48;103034.66;1981083;28;3634625;-74
2023/02/09 01:56:16;;;;;;;;;76.67;61.33;;;;;1.30;57.91;103026.91;1961628;28;3624208;-74
2023/02/09 01:57:35;;;;;;;;;64.00;47.67;;;;;1.29;57.34;103037.16;1961132;28;3621059;-74
2023/02/09 01:58:47;;;;;;;;;79.00;61.67;;;;;1.28;57.51;103032.81;1989433;28;3635673;-74
2023/02/09 02:00:11;;;;;;;;;91.75;70.00;;;;;1.27;57.68;103037.13;1968364;28;4436656;-74
2023/02/09 02:01:24;;;;;;;;;83.00;63.00;;;;;1.27;57.20;103041.41;1985499;28;3643976;-74
2023/02/09 02:02:37;;;;;;;;;83.33;64.67;;;;;1.26;57.07;103037.06;1968444;28;3650305;-74
2023/02/09 02:03:51;;;;;;;;;86.67;65.67;;;;;1.26;57.38;103043.09;1962579;28;3648137;-74
2023/02/09 02:05:04;;;;;;;;;84.67;65.00;;;;;1.25;57.92;103041.34;1975930;28;3642277;-74
2023/02/09 02:06:17;;;;;;;;;84.00;64.00;;;;;1.26;58.06;103037.06;1974557;28;3651290;-75
2023/02/09 02:07:40;;;;;;;;;85.67;64.67;;;;;1.23;57.65;103033.50;1965593;28;3640854;-74
2023/02/09 02:09:01;;;;;;;;;84.00;64.00;;;;;1.22;57.45;103038.63;1961299;28;3647116;-74
2023/02/09 02:10:13;;;;;;;;;78.67;63.33;;;;;1.22;57.74;103044.69;1961139;28;3618993;-74
2023/02/09 02:11:28;;;;;;;;;84.00;64.00;;;;;1.21;57.85;103035.13;1973690;28;3636726;-74
2023/02/09 02:12:40;;;;;;;;;83.67;62.33;;;;;1.20;57.65;103041.16;1967430;28;3638760;-74
2023/02/09 02:13:52;;;;;;;;;86.33;64.67;;;;;1.19;57.64;103039.38;1967404;28;3631556;-74
2023/02/09 02:15:05;;;;;;;;;85.67;63.67;;;;;1.18;57.81;103041.91;1980658;28;3641948;-74
2023/02/09 02:16:49;;;;;;;;;64.00;48.67;;;;;1.19;57.83;103038.47;1966005;28;3608588;-74
2023/02/09 02:18:25;;;;;;;;;84.67;65.33;;;;;1.16;57.65;103039.22;1990293;28;3629775;-74
2023/02/09 02:20:12;;;;;;;;;88.33;68.33;;;;;1.15;57.84;103047.84;1968613;28;3656467;-74
2023/02/09 02:21:54;;;;;;;;;83.67;63.00;;;;;1.15;58.06;103036.59;1948454;28;3640871;-75
2023/02/09 02:23:21;;;;;;;;;83.33;65.67;;;;;1.14;58.09;103034.81;1967758;28;3627335;-74
2023/02/09 02:24:41;;;;;;;;;83.33;64.00;;;;;1.13;58.17;103039.13;1970891;28;3640927;-74
2023/02/09 02:26:02;;;;;;;;;81.67;63.33;;;;;1.12;57.75;103038.22;1968895;28;3625281;-74
2023/02/09 02:27:47;;;;;;;;;89.33;71.00;;;;;1.12;57.67;103032.16;1967678;28;3656505;-75
2023/02/09 02:29:36;;;;;;;;;82.33;64.00;;;;;1.11;58.20;103036.44;1945084;28;3624188;-74
2023/02/09 02:31:13;;;;;;;;;87.33;67.67;;;;;1.10;57.93;103038.97;1984163;28;3643977;-74
2023/02/09 02:32:49;;;;;;;;;91.50;69.25;;;;;1.09;57.99;103032.00;1968273;28;3670025;-74
2023/02/09 02:34:15;;;;;;;;;77.33;60.67;;;;;1.07;58.36;103034.53;1991484;28;3621151;-74
2023/02/09 02:35:37;;;;;;;;;88.00;66.67;;;;;1.06;57.85;103035.34;1967625;28;3655461;-74
2023/02/09 02:37:04;;;;;;;;;85.00;66.00;;;;;1.06;57.70;103042.25;1968148;28;3634629;-74
2023/02/09 02:38:25;;;;;;;;;87.67;68.33;;;;;1.06;57.61;103037.06;1961685;28;3650233;-75
2023/02/09 02:39:49;;;;;;;;;91.67;66.67;;;;;1.07;58.37;103038.81;1960863;28;3661727;-74
2023/02/09 02:41:20;;;;;;;;;86.67;69.33;;;;;1.06;58.17;103031.91;1960982;28;3652293;-74
2023/02/09 02:42:47;;;;;;;;;87.33;65.67;;;;;1.03;58.06;103032.63;1968438;28;3654439;-75
2023/02/09 02:44:06;;;;;;;;;80.00;59.00;;;;;1.02;58.32;103028.28;1964810;28;3643992;-75
2023/02/09 02:45:50;;;;;;;;;88.67;66.00;;;;;1.03;57.72;103032.63;1968161;28;3640878;-74
2023/02/09 02:47:06;;;;;;;;;82.33;63.67;;;;;1.01;58.06;103024.78;1944549;28;3648161;-74
2023/02/09 02:48:33;;;;;;;;;79.33;61.67;;;;;1.01;57.40;103029.09;1947747;28;3623175;-75
2023/02/09 02:49:52;;;;;;;;;84.00;66.33;;;;;1.00;57.99;103028.22;1959706;28;3631531;-75
2023/02/09 02:51:06;;;;;;;;;86.33;65.67;;;;;1.01;58.04;103023.91;1969087;28;3637746;-74
2023/02/09 02:52:18;;;;;;;;;84.67;63.67;;;;;1.00;57.99;103022.13;1969030;28;3631472;-75
2023/02/09 02:53:34;;;;;;;;;80.33;62.33;;;;;1.00;58.28;103022.13;1983234;28;3625258;-74
2023/02/09 02:55:01;;;;;;;;;85.33;65.00;;;;;1.01;58.23;103029.09;1966461;28;3637734;-74
2023/02/09 02:56:25;;;;;;;;;90.75;67.75;;;;;1.00;57.91;103032.50;1968812;28;3672177;-74
2023/02/09 02:57:42;;;;;;;;;86.00;65.67;;;;;1.00;57.96;103032.50;1991653;28;3633581;-74
2023/02/09 02:58:58;;;;;;;;;93.67;66.67;;;;;1.00;57.88;103027.31;1961477;28;3663917;-75
2023/02/09 03:00:15;;;;;;;;;87.67;66.67;;;;;1.00;58.13;103027.31;1963627;28;3649172;-75
2023/02/09 03:01:33;;;;;;;;;86.33;66.33;;;;;0.99;57.88;103038.47;1967634;28;3645065;-75
2023/02/09 03:02:52;;;;;;;;;87.00;67.33;;;;;1.00;57.94;103029.91;1967814;28;3639240;-75
2023/02/09 03:04:05;;;;;;;;;86.33;70.33;;;;;0.99;58.03;103033.31;1968493;28;3643991;-75
2023/02/09 03:05:21;;;;;;;;;85.00;66.33;;;;;1.00;57.99;103032.50;1959690;28;3631512;-75
2023/02/09 03:06:36;;;;;;;;;80.00;65.00;;;;;0.99;58.15;103039.38;1952874;28;3621064;-75
2023/02/09 03:07:48;;;;;;;;;89.33;68.00;;;;;0.99;58.23;103041.97;1988504;28;3653370;-75
2023/02/09 03:09:02;;;;;;;;;92.50;70.00;;;;;0.99;58.53;103038.47;1971286;28;4431456;-75
2023/02/09 03:10:31;;;;;;;;;91.50;69.50;;;;;0.98;57.92;103041.91;1990957;28;3645333;-74
2023/02/09 03:11:48;;;;;;;;;91.25;66.50;;;;;0.98;58.66;103047.09;1983748;28;3658610;-75
2023/02/09 03:13:24;;;;;;;;;87.00;63.00;;;;;0.96;58.62;103035.78;1983473;28;3655428;-74
2023/02/09 03:14:46;;;;;;;;;90.33;65.67;;;;;0.95;58.60;103041.75;1960654;28;3663808;-75
2023/02/09 03:16:06;;;;;;;;;89.67;67.33;;;;;0.92;57.87;103037.34;1967027;28;3660657;-74
2023/02/09 03:17:34;;;;;;;;;82.00;64.00;;;;;0.91;58.16;103030.41;1967796;28;3634664;-75
2023/02/09 03:19:00;;;;;;;;;86.33;67.67;;;;;0.89;58.26;103032.91;1963190;28;3640897;-75
2023/02/09 03:20:33;;;;;;;;;87.33;65.33;;;;;0.89;58.52;103034.59;1968081;28;3647171;-75
2023/02/09 03:21:48;;;;;;;;;85.00;67.00;;;;;0.91;58.80;103037.28;1955570;28;3645025;-75
2023/02/09 03:23:03;;;;;;;;;89.67;67.00;;;;;0.89;58.77;103038.06;1965621;28;3657512;-75
2023/02/09 03:24:43;;;;;;;;;85.33;65.00;;;;;0.87;58.20;103036.22;1973414;28;3630454;-75
2023/02/09 03:25:57;;;;;;;;;92.00;73.00;;;;;0.87;58.83;103037.13;1960596;28;3667026;-74
2023/02/09 03:27:20;;;;;;;;;89.00;70.67;;;;;0.86;58.18;103030.19;1991666;28;3652300;-75
2023/02/09 03:28:35;;;;;;;;;92.33;69.33;;;;;0.86;58.12;103019.84;1967220;28;3663767;-75
2023/02/09 03:29:52;;;;;;;;;82.00;62.67;;;;;0.85;58.79;103028.41;1967445;28;3632545;-75
2023/02/09 03:31:05;;;;;;;;;91.67;75.33;;;;;0.85;58.21;103032.69;1962017;28;3654412;-75
2023/02/09 03:32:18;;;;;;;;;87.67;67.67;;;;;0.85;58.60;103028.41;1967901;28;3654400;-75
2023/02/09 03:33:32;;;;;;;;;92.00;72.67;;;;;0.85;58.25;103027.50;1966910;28;3654411;-75
2023/02/09 03:34:44;;;;;;;;;87.67;70.33;;;;;0.85;58.82;103028.41;1967174;28;3641911;-75
2023/02/09 03:35:58;;;;;;;;;92.33;74.33;;;;;0.85;58.38;103028.41;1968207;28;3660287;-75
2023/02/09 03:37:10;;;;;;;;;88.00;71.33;;;;;0.85;59.16;103027.50;1967783;28;3640827;-75
2023/02/09 03:38:22;;;;;;;;;87.67;68.67;;;;;0.84;58.54;103026.63;1978451;28;3654407;-75
2023/02/09 03:39:34;;;;;;;;;95.67;79.00;;;;;0.85;58.84;103024.94;1978482;28;3643049;-75
2023/02/09 03:40:46;;;;;;;;;95.25;81.25;;;;;0.86;58.63;103029.31;1974865;28;3669052;-75
2023/02/09 03:41:59;;;;;;;;;89.50;70.00;;;;;0.85;59.27;103032.69;1986968;28;3660702;-75
2023/02/09 03:43:10;;;;;;;;;88.00;72.67;;;;;0.85;58.71;103025.81;1990419;28;3642923;-75
2023/02/09 03:44:27;;;;;;;;;94.63;78.00;;;;;0.85;59.07;103023.22;1983375;28;3677304;-75
2023/02/09 03:45:38;;;;;;;;;96.50;77.50;;;;;0.85;59.29;103027.50;1965698;28;2573169;-75
2023/02/09 03:47:00;;;;;;;;;95.00;79.00;;;;;0.84;58.86;103016.25;1969922;28;3663738;-75
2023/02/09 03:48:12;;;;;;;;;97.25;77.75;;;;;0.83;58.41;103019.69;1990924;28;4433528;-75
2023/02/09 03:49:30;;;;;;;;;94.88;78.75;;;;;0.84;58.62;103023.16;2008511;28;3660606;-75
2023/02/09 03:50:42;;;;;;;;;93.67;77.67;;;;;0.84;59.27;103026.63;1966914;28;3656494;-75
2023/02/09 03:51:59;;;;;;;;;96.38;81.13;;;;;0.84;59.06;103023.16;1985003;28;3672124;-75
2023/02/09 03:53:11;;;;;;;;;94.25;75.50;;;;;0.85;58.72;103023.22;1969315;28;3677396;-75
2023/02/09 03:54:22;;;;;;;;;110.00;88.50;;;;;0.85;59.39;103018.06;1982560;28;2922136;-75
2023/02/09 03:55:36;;;;;;;;;98.50;86.25;;;;;0.85;59.23;103023.22;1975254;28;3676709;-75
2023/02/09 03:56:48;;;;;;;;;108.75;93.75;;;;;0.85;59.07;103023.22;1988871;28;3679489;-75
2023/02/09 03:58:00;;;;;;;;;106.50;91.50;;;;;0.85;59.12;103022.34;1989523;28;3664886;-75
2023/02/09 03:59:13;;;;;;;;;100.75;90.50;;;;;0.84;59.29;103029.22;1982808;28;3659602;-75
2023/02/09 04:00:25;;;;;;;;;109.25;93.75;;;;;0.83;59.53;103027.47;1981933;28;4433538;-75
2023/02/09 04:01:38;;;;;;;;;102.50;91.25;;;;;0.83;59.58;103030.06;1991815;28;4438828;-75
2023/02/09 04:02:53;;;;;;;;;106.56;93.67;;;;;0.84;59.68;103034.38;2002823;28;3688764;-75
2023/02/09 04:04:05;;;;;;;;;101.00;90.00;;;;;0.83;59.64;103035.22;1982045;28;3668094;-75
2023/02/09 04:05:16;;;;;;;;;114.50;98.00;;;;;0.84;59.36;103029.22;1983294;28;2933623;-75
2023/02/09 04:06:31;;;;;;;;;104.75;93.25;;;;;0.84;59.32;103025.75;1974218;28;3661718;-75
2023/02/09 04:07:42;;;;;;;;;106.00;87.00;;;;;0.83;59.25;103026.56;1957616;28;2575304;-75
2023/02/09 04:08:57;;;;;;;;;105.25;93.38;;;;;0.83;59.27;103026.56;1981953;28;3673164;-75
2023/02/09 04:10:09;;;;;;;;;101.00;89.00;;;;;0.84;59.75;103028.34;1961162;28;2573162;-75
2023/02/09 04:11:21;;;;;;;;;115.50;100.75;;;;;0.82;58.84;103038.63;1961870;28;3694053;-75
2023/02/09 04:12:32;;;;;;;;;113.50;99.00;;;;;0.83;59.00;103034.34;1987574;28;2578388;-75
2023/02/09 04:13:46;;;;;;;;;107.00;92.50;;;;;0.83;59.28;103030.06;1980473;28;3689816;-75
2023/02/09 04:15:01;;;;;;;;;103.67;87.11;;;;;0.84;59.42;103034.38;1982410;28;3697223;-75
2023/02/09 04:16:12;;;;;;;;;102.67;97.33;;;;;0.84;59.00;103031.81;1991019;28;3660641;-75
2023/02/09 04:17:24;;;;;;;;;94.67;68.67;;;;;0.84;59.62;103028.34;1986905;28;3680481;-75
2023/02/09 04:18:38;;;;;;;;;108.75;95.13;;;;;0.83;58.87;103024.88;1982138;28;3681495;-75
2023/02/09 04:19:50;;;;;;;;;101.00;92.00;;;;;0.83;59.81;103035.22;1979332;28;3665837;-75
2023/02/09 04:21:05;;;;;;;;;110.22;93.22;;;;;0.83;59.66;103035.22;1983356;28;3685715;-75
2023/02/09 04:22:17;;;;;;;;;97.75;88.00;;;;;0.84;59.32;103051.66;1986937;28;3664817;-75
2023/02/09 04:23:30;;;;;;;;;101.75;90.75;;;;;0.84;59.50;103049.06;1987459;28;4437701;-75
2023/02/09 04:24:44;;;;;;;;;97.00;81.38;;;;;0.84;59.14;103047.34;2007111;28;3676242;-75
2023/02/09 04:25:57;;;;;;;;;107.13;94.50;;;;;0.84;59.33;103039.56;1987377;28;3681509;-75
2023/02/09 04:27:11;;;;;;;;;101.63;88.88;;;;;0.84;59.88;103044.75;1982349;28;3682519;-75
2023/02/09 04:28:25;;;;;;;;;101.13;87.38;;;;;0.83;59.18;103040.41;1982214;28;3678357;-75
2023/02/09 04:29:39;;;;;;;;;104.63;88.63;;;;;0.83;59.57;103043.00;1984094;28;3676253;-75
2023/02/09 04:30:53;;;;;;;;;112.25;97.50;;;;;0.82;59.68;103046.38;1980644;28;3684741;-75
2023/02/09 04:32:04;;;;;;;;;104.00;87.00;;;;;0.81;59.21;103039.47;1988316;28;2580469;-75
2023/02/09 04:33:20;;;;;;;;;109.11;94.44;;;;;0.81;59.13;103042.03;1988935;28;3689811;-75
2023/02/09 04:34:31;;;;;;;;;93.00;73.67;;;;;0.81;59.09;103046.31;1987082;28;3657522;-75
2023/02/09 04:35:47;;;;;;;;;107.75;92.13;;;;;0.80;59.04;103048.03;1975195;28;3685605;-75
2023/02/09 04:36:59;;;;;;;;;103.67;94.00;;;;;0.78;59.07;103054.84;1967030;28;3652309;-75
2023/02/09 04:38:15;;;;;;;;;110.22;96.89;;;;;0.80;58.90;103052.31;1982726;28;3687720;-75
2023/02/09 04:39:25;;;;;;;;;117.50;101.00;;;;;0.78;59.55;103052.25;1987610;28;2584624;-75
2023/02/09 04:40:39;;;;;;;;;102.00;92.88;;;;;0.77;59.55;103050.47;1981206;28;3659604;-75
2023/02/09 04:41:54;;;;;;;;;111.00;96.22;;;;;0.76;59.60;103049.59;2007529;28;3681478;-75
2023/02/09 04:43:04;;;;;;;;;110.00;92.50;;;;;0.74;59.51;103046.03;1988722;28;2577360;-75
2023/02/09 04:44:18;;;;;;;;;101.00;90.00;;;;;0.74;59.65;103051.22;1981820;28;3661094;-75
2023/02/09 04:45:29;;;;;;;;;105.00;90.50;;;;;0.72;59.52;103051.97;1995254;28;2571090;-75
2023/02/09 04:46:44;;;;;;;;;115.11;92.22;;;;;0.72;59.39;103049.38;1974314;28;3687759;-75
2023/02/09 04:47:55;;;;;;;;;116.00;97.00;;;;;0.72;59.29;103046.78;1981901;28;2580469;-75
2023/02/09 04:49:09;;;;;;;;;104.13;92.38;;;;;0.71;59.06;103039.84;1983915;28;3674210;-75
2023/02/09 04:50:22;;;;;;;;;97.88;87.38;;;;;0.71;59.50;103034.66;2006294;28;3664804;-75
2023/02/09 04:51:35;;;;;;;;;110.00;97.00;;;;;0.67;59.06;103026.75;1978535;28;3677284;-75
2023/02/09 04:52:47;;;;;;;;;95.75;78.50;;;;;0.66;59.32;103025.00;1966775;28;4419994;-75
2023/02/09 04:54:02;;;;;;;;;104.67;91.22;;;;;0.68;59.36;103025.06;2005066;28;3691899;-75
2023/02/09 04:55:15;;;;;;;;;109.50;99.75;;;;;0.65;59.99;103020.63;1991237;28;4447096;-75
2023/02/09 04:56:27;;;;;;;;;108.75;90.25;;;;;0.66;60.27;103016.34;2004151;28;4452340;-75
2023/02/09 05:00:40;;;;;;;;;114.50;100.00;;;;;0.65;59.26;103012.84;1988848;28;2582548;-75
2023/02/09 05:01:54;;;;;;;;;116.56;97.56;;;;;0.64;60.17;103021.44;1984213;28;3688813;-75
2023/02/09 05:03:05;;;;;;;;;121.00;103.00;;;;;0.65;59.57;103018.03;1988339;28;2570091;-75
2023/02/09 05:04:20;;;;;;;;;103.33;88.11;;;;;0.65;60.26;103020.63;1983149;28;3686689;-75
2023/02/09 05:05:30;;;;;;;;;106.50;92.00;;;;;0.65;59.66;103025.81;1989643;28;2579416;-75
2023/02/09 05:06:44;;;;;;;;;104.13;93.25;;;;;0.65;59.70;103019.72;1984017;28;3670039;-75
2023/02/09 05:07:59;;;;;;;;;111.44;97.33;;;;;0.65;59.46;103023.22;2008488;28;3699209;-75
2023/02/09 05:09:11;;;;;;;;;109.00;91.75;;;;;0.66;59.83;103022.41;1990556;28;4442894;-75
2023/02/09 05:10:25;;;;;;;;;105.25;91.75;;;;;0.67;59.77;103019.00;2002086;28;3673535;-75
2023/02/09 05:11:39;;;;;;;;;112.00;97.00;;;;;0.67;59.80;103013.81;2006749;28;3684937;-75
2023/02/09 05:12:53;;;;;;;;;92.25;76.25;;;;;0.66;60.14;103012.06;1981043;28;3652354;-75
2023/02/09 05:14:07;;;;;;;;;101.50;89.13;;;;;0.68;59.88;103009.53;2004282;28;3690814;-75
2023/02/09 05:15:18;;;;;;;;;75.67;58.00;;;;;0.69;59.63;103006.13;2006281;28;3623167;-75
2023/02/09 05:16:29;;;;;;;;;105.00;86.00;;;;;0.69;60.22;103007.81;2002991;28;2576341;-75
2023/02/09 05:17:43;;;;;;;;;108.38;94.13;;;;;0.70;59.81;103007.00;1984463;28;3684611;-75
2023/02/09 05:18:58;;;;;;;;;105.89;91.78;;;;;0.71;59.74;103003.59;2007209;28;3684595;-75
2023/02/09 05:20:10;;;;;;;;;103.25;87.75;;;;;0.70;60.10;103001.81;1991711;28;4439777;-75
2023/02/09 05:21:23;;;;;;;;;106.00;93.00;;;;;0.72;60.09;102998.47;2007988;28;3668991;-75
2023/02/09 05:22:36;;;;;;;;;108.00;94.25;;;;;0.70;60.05;103002.72;1991299;28;3675422;-75
2023/02/09 05:23:49;;;;;;;;;97.50;81.25;;;;;0.70;60.04;103007.88;1984014;28;4435646;-75
2023/02/09 05:25:03;;;;;;;;;101.25;89.75;;;;;0.71;60.18;103012.25;2006540;28;3675221;-75
2023/02/09 05:26:16;;;;;;;;;101.75;87.00;;;;;0.72;60.03;103020.88;1991490;28;4462697;-75
2023/02/09 05:27:27;;;;;;;;;105.50;90.50;;;;;0.71;60.10;103027.78;1988853;28;2577320;-75
2023/02/09 05:28:38;;;;;;;;;99.00;83.00;;;;;0.73;59.61;103038.22;1977670;28;2567933;-75
2023/02/09 05:29:51;;;;;;;;;97.25;85.50;;;;;0.74;59.98;103046.03;1977975;28;3667021;-75
2023/02/09 05:31:02;;;;;;;;;97.00;83.50;;;;;0.75;59.82;103050.41;1981800;28;2580453;-75
2023/02/09 05:32:14;;;;;;;;;96.00;86.00;;;;;0.73;59.42;103054.63;1989162;28;3652262;-75
2023/02/09 05:33:26;;;;;;;;;95.50;77.75;;;;;0.71;59.95;103061.44;1989932;28;3666923;-75
2023/02/09 05:34:37;;;;;;;;;100.50;83.50;;;;;0.71;59.54;103069.22;1988708;28;2571093;-75
2023/02/09 05:35:50;;;;;;;;;95.40;84.20;;;;;0.72;59.88;103070.06;1964736;28;2897333;-75
2023/02/09 05:37:01;;;;;;;;;100.00;86.50;;;;;0.73;59.25;103077.03;1989439;28;2574251;-75
2023/02/09 05:38:12;;;;;;;;;97.50;79.00;;;;;0.74;59.27;103082.28;1970909;28;2577320;-75
2023/02/09 05:39:26;;;;;;;;;99.13;87.13;;;;;0.75;59.88;103078.00;1985826;28;3671093;-74
2023/02/09 05:40:38;;;;;;;;;95.00;79.60;;;;;0.77;59.31;103081.53;1987404;28;3651339;-75
2023/02/09 05:43:24;;;;;;;;;100.00;85.50;;;;;0.79;59.60;103087.69;1991778;28;4439773;-74
2023/02/09 05:44:38;;;;;;;;;98.75;84.00;;;;;0.78;59.43;103080.72;2008336;28;3680386;-75